createdAt,value
2023-01-10T00:01:49.628Z,100051.06
2023-01-10T00:04:16.148Z,100052.53
2023-01-10T00:06:42.602Z,100063.16
2023-01-10T00:09:10.402Z,100064.44
2023-01-10T00:11:55.441Z,100070.38
2023-01-10T00:14:21.835Z,100074.56
2023-01-10T00:16:48.212Z,100087.16
2023-01-10T00:19:14.685Z,100097.81
2023-01-10T00:21:41.155Z,100095.00
2023-01-10T00:24:17.250Z,100102.69
2023-01-10T00:26:45.599Z,100105.88
2023-01-10T00:29:12.213Z,100117.59
2023-01-10T00:31:38.635Z,100122.34
2023-01-10T00:34:05.086Z,100122.94
2023-01-10T00:36:31.448Z,100134.41
2023-01-10T00:38:57.836Z,100134.28
2023-01-10T00:41:42.641Z,100140.88
2023-01-10T00:44:09.104Z,100140.88
2023-01-10T00:46:35.690Z,100152.22
2023-01-10T00:49:05.355Z,100155.94
2023-01-10T00:51:31.776Z,100163.41
2023-01-10T00:53:58.151Z,100164.38
2023-01-10T00:56:24.551Z,100178.56
2023-01-10T00:58:50.945Z,100169.72
2023-01-10T01:01:17.504Z,100179.13
2023-01-10T01:03:43.975Z,100185.81
2023-01-10T01:06:10.388Z,100191.94
2023-01-10T01:08:36.807Z,100187.88
2023-01-10T01:11:03.301Z,100198.09
2023-01-10T01:13:29.788Z,100197.41
2023-01-10T01:16:00.238Z,100206.81
2023-01-10T01:18:27.402Z,100223.06
2023-01-10T01:20:56.838Z,100221.16
2023-01-10T01:23:23.944Z,100222.94
2023-01-10T01:25:52.596Z,100220.69
2023-01-10T01:28:19.533Z,100226.81
2023-01-10T01:30:46.269Z,100237.03
2023-01-10T01:33:13.146Z,100241.47
2023-01-10T01:35:44.057Z,100233.28
2023-01-10T01:38:11.082Z,100238.06
2023-01-10T01:40:41.514Z,100242.81
2023-01-10T01:43:26.822Z,100249.50
2023-01-10T01:45:54.223Z,100249.38
2023-01-10T01:48:42.691Z,100250.41
2023-01-10T01:51:19.787Z,100246.47
2023-01-10T01:53:52.519Z,100248.59
2023-01-10T01:56:23.436Z,100269.38
2023-01-10T01:59:28.033Z,100273.59
2023-01-10T02:02:01.908Z,100279.13
2023-01-10T02:04:38.115Z,100280.25
2023-01-10T02:07:04.748Z,100290.25
2023-01-10T02:09:37.683Z,100292.41
2023-01-10T02:12:04.508Z,100288.88
2023-01-10T02:14:33.258Z,100280.59
2023-01-10T02:16:59.697Z,100278.53
2023-01-10T02:19:32.260Z,100278.56
2023-01-10T02:22:24.219Z,100275.94
2023-01-10T02:25:13.883Z,100281.31
2023-01-10T02:27:58.307Z,100279.81
2023-01-10T02:30:40.239Z,100290.44
2023-01-10T02:33:10.736Z,100291.81
2023-01-10T02:39:09.701Z,100292.19
2023-01-10T02:41:59.537Z,100300.81
2023-01-10T02:44:25.906Z,100306.19
2023-01-10T02:46:52.404Z,100309.47
2023-01-10T02:49:19.468Z,100316.34
2023-01-10T02:51:45.847Z,100314.31
2023-01-10T02:54:23.040Z,100318.50
2023-01-10T02:57:26.518Z,100320.09
2023-01-10T03:00:17.396Z,100324.19
2023-01-10T03:02:58.190Z,100325.16
2023-01-10T03:05:59.836Z,100332.00
2023-01-10T03:08:43.808Z,100335.84
2023-01-10T03:11:11.205Z,100336.81
2023-01-10T03:13:48.508Z,100348.25
2023-01-10T03:16:23.452Z,100354.47
2023-01-10T03:19:01.579Z,100360.38
2023-01-10T03:21:30.529Z,100371.75
2023-01-10T03:24:03.630Z,100365.56
2023-01-10T03:26:45.748Z,100363.41
2023-01-10T03:29:16.346Z,100367.03
2023-01-10T03:31:52.196Z,100369.09
2023-01-10T03:34:18.716Z,100379.13
2023-01-10T03:36:58.265Z,100391.56
2023-01-10T03:39:49.205Z,100391.16
2023-01-10T03:42:59.943Z,100405.03
2023-01-10T03:45:33.595Z,100407.75
2023-01-10T03:48:03.403Z,100421.09
2023-01-10T03:50:31.421Z,100422.31
2023-01-10T03:52:58.452Z,100428.31
2023-01-10T03:55:28.916Z,100426.75
2023-01-10T03:57:55.465Z,100434.22
2023-01-10T04:00:22.107Z,100436.50
2023-01-10T04:02:48.531Z,100436.50
2023-01-10T04:05:14.989Z,100446.56
2023-01-10T04:07:41.472Z,100454.88
2023-01-10T04:10:09.042Z,100451.47
2023-01-10T04:12:35.428Z,100456.59
2023-01-10T04:15:02.742Z,100464.47
2023-01-10T04:17:29.197Z,100463.41
2023-01-10T04:19:55.659Z,100471.56
2023-01-10T04:22:22.052Z,100474.44
2023-01-10T04:24:51.120Z,100476.31
2023-01-10T04:27:18.568Z,100485.09
2023-01-10T04:29:44.995Z,100490.75
2023-01-10T04:32:11.539Z,100504.25
2023-01-10T04:34:37.976Z,100497.97
2023-01-10T04:37:04.372Z,100506.09
2023-01-10T04:39:30.796Z,100515.13
2023-01-10T04:41:57.232Z,100523.53
2023-01-10T04:44:23.664Z,100521.53
2023-01-10T04:46:50.120Z,100519.28
2023-01-10T04:49:16.538Z,100534.84
2023-01-10T04:51:42.965Z,100535.34
2023-01-10T04:54:09.357Z,100544.63
2023-01-10T04:56:35.796Z,100552.13
2023-01-10T04:59:02.455Z,100552.59
2023-01-10T05:01:29.085Z,100558.09
2023-01-10T05:03:56.146Z,100554.94
2023-01-10T05:06:24.272Z,100562.47
2023-01-10T05:08:50.952Z,100564.28
2023-01-10T05:11:17.386Z,100561.78
2023-01-10T05:13:44.003Z,100578.50
2023-01-10T05:16:10.516Z,100581.84
2023-01-10T05:18:37.115Z,100588.91
2023-01-10T05:21:06.301Z,100592.59
2023-01-10T05:23:33.011Z,100598.69
2023-01-10T05:26:09.643Z,100596.63
2023-01-10T05:28:36.758Z,100598.69
2023-01-10T05:31:03.172Z,100597.09
2023-01-10T05:33:29.605Z,100600.13
2023-01-10T05:35:56.051Z,100600.34
2023-01-10T05:38:22.426Z,100613.50
2023-01-10T05:40:48.838Z,100608.53
2023-01-10T05:43:15.228Z,100622.88
2023-01-10T05:45:42.669Z,100624.31
2023-01-10T05:48:09.103Z,100635.50
2023-01-10T05:50:35.490Z,100643.13
2023-01-10T05:53:05.685Z,100638.94
2023-01-10T05:55:32.307Z,100655.41
2023-01-10T05:57:59.005Z,100655.97
2023-01-10T06:00:26.483Z,100657.97
2023-01-10T06:02:56.792Z,100664.88
2023-01-10T06:05:24.565Z,100657.63
2023-01-10T06:07:51.075Z,100669.34
2023-01-10T06:10:18.188Z,100675.13
2023-01-10T06:12:44.861Z,100683.22
2023-01-10T06:15:11.439Z,100689.34
2023-01-10T06:17:37.862Z,100690.94
2023-01-10T06:20:04.853Z,100698.81
2023-01-10T06:22:31.274Z,100703.25
2023-01-10T06:24:57.740Z,100700.69
2023-01-10T06:27:24.199Z,100705.84
2023-01-10T06:29:50.596Z,100715.66
2023-01-10T06:32:17.149Z,100731.84
2023-01-10T06:34:43.542Z,100734.22
2023-01-10T06:37:09.933Z,100737.06
2023-01-10T06:39:36.383Z,100740.50
2023-01-10T06:42:02.888Z,100743.81
2023-01-10T06:44:29.261Z,100743.03
2023-01-10T06:46:55.649Z,100748.94
2023-01-10T06:49:22.080Z,100757.94
2023-01-10T06:51:48.455Z,100759.34
2023-01-10T06:54:14.999Z,100765.13
2023-01-10T06:56:41.447Z,100765.41
2023-01-10T06:59:08.813Z,100767.84
2023-01-10T07:01:35.384Z,100778.41
2023-01-10T07:04:01.941Z,100773.03
2023-01-10T07:06:28.451Z,100778.75
2023-01-10T07:08:54.916Z,100793.31
2023-01-10T07:11:21.409Z,100789.19
2023-01-10T07:13:47.919Z,100803.25
2023-01-10T07:16:16.240Z,100810.59
2023-01-10T07:18:43.377Z,100815.31
2023-01-10T07:21:10.330Z,100819.44
2023-01-10T07:23:38.071Z,100819.00
2023-01-10T07:26:07.099Z,100825.72
2023-01-10T07:28:36.840Z,100838.84
2023-01-10T07:31:06.050Z,100834.72
2023-01-10T07:33:32.552Z,100841.44
2023-01-10T07:36:01.016Z,100857.16
2023-01-10T07:38:27.684Z,100852.19
2023-01-10T07:40:54.167Z,100851.38
2023-01-10T07:43:20.648Z,100857.78
2023-01-10T07:45:47.024Z,100857.97
2023-01-10T07:48:13.490Z,100863.38
2023-01-10T07:50:40.257Z,100870.44
2023-01-10T07:53:08.356Z,100870.72
2023-01-10T07:55:38.835Z,100872.13
2023-01-10T07:58:07.843Z,100878.75
2023-01-10T08:00:35.068Z,100886.09
2023-01-10T08:03:01.782Z,100885.16
2023-01-10T08:05:28.359Z,100888.81
2023-01-10T08:07:59.785Z,100903.59
2023-01-10T08:10:27.210Z,100907.13
2023-01-10T08:12:53.837Z,100910.66
2023-01-10T08:15:20.547Z,100917.38
2023-01-10T08:17:46.990Z,100919.44
2023-01-10T08:20:13.549Z,100927.81
2023-01-10T08:22:40.028Z,100936.94
2023-01-10T08:25:06.809Z,100935.34
2023-01-10T08:27:33.359Z,100936.63
2023-01-10T08:29:59.826Z,100942.06
2023-01-10T08:32:26.352Z,100945.28
2023-01-10T08:34:52.775Z,100956.16
2023-01-10T08:37:19.169Z,100954.91
2023-01-10T08:39:45.632Z,100962.59
2023-01-10T08:42:12.051Z,100959.88
2023-01-10T08:44:38.542Z,100966.91
2023-01-10T08:47:04.980Z,100966.75
2023-01-10T08:49:31.386Z,100972.81
2023-01-10T08:51:57.820Z,100972.66
2023-01-10T08:54:24.401Z,100977.66
2023-01-10T08:56:50.811Z,100974.44
2023-01-10T08:59:17.241Z,100980.22
2023-01-10T09:01:43.751Z,100984.69
2023-01-10T09:04:10.276Z,100991.56
2023-01-10T09:06:37.638Z,100992.38
2023-01-10T09:09:04.861Z,100994.00
2023-01-10T09:11:31.454Z,100998.16
2023-01-10T09:13:57.906Z,100996.88
2023-01-10T09:16:24.450Z,101008.09
2023-01-10T09:18:50.891Z,101006.47
2023-01-10T09:21:17.399Z,101000.88
2023-01-10T09:23:44.343Z,101003.91
2023-01-10T09:26:10.849Z,101004.41
2023-01-10T09:28:37.283Z,101000.56
2023-01-10T09:31:05.086Z,101016.94
2023-01-10T09:33:45.195Z,101022.22
2023-01-10T09:36:15.293Z,101023.00
2023-01-10T09:38:41.870Z,101025.41
2023-01-10T09:41:17.324Z,101036.63
2023-01-10T09:44:01.112Z,101046.09
2023-01-10T09:46:42.656Z,101041.16
2023-01-10T09:49:27.513Z,101036.50
2023-01-10T09:51:59.088Z,101039.22
2023-01-10T09:54:29.755Z,101040.50
2023-01-10T09:56:58.120Z,101036.63
2023-01-10T09:59:31.059Z,101037.94
2023-01-10T10:02:14.404Z,101042.56
2023-01-10T10:04:41.541Z,101041.59
2023-01-10T10:07:15.384Z,101039.81
2023-01-10T10:09:43.611Z,101053.63
2023-01-10T10:12:19.197Z,101044.50
2023-01-10T10:14:45.558Z,101049.44
2023-01-10T10:17:18.007Z,101050.88
2023-01-10T10:20:15.762Z,101059.69
2023-01-10T10:23:17.399Z,101056.50
2023-01-10T10:26:01.493Z,101047.78
2023-01-10T10:28:56.295Z,101058.53
2023-01-10T10:31:44.402Z,101057.59
2023-01-10T10:34:28.251Z,101056.94
2023-01-10T10:37:00.687Z,101067.88
2023-01-10T10:39:36.524Z,101082.59
2023-01-10T10:42:03.798Z,101079.72
2023-01-10T10:44:45.393Z,101084.56
2023-01-10T10:47:20.620Z,101080.50
2023-01-10T10:50:04.378Z,101078.75
2023-01-10T10:52:34.816Z,101082.94
2023-01-10T10:55:04.864Z,101066.56
2023-01-10T10:57:33.672Z,101076.69
2023-01-10T11:00:02.664Z,101069.94
2023-01-10T11:02:40.187Z,101058.41
2023-01-10T11:05:14.531Z,101061.25
2023-01-10T11:07:40.963Z,101077.69
2023-01-10T11:10:34.876Z,101073.47
2023-01-10T11:13:05.709Z,101076.88
2023-01-10T11:15:41.690Z,101068.19
2023-01-10T11:18:14.642Z,101066.09
2023-01-10T11:21:01.784Z,101078.13
2023-01-10T11:23:34.700Z,101077.19
2023-01-10T11:26:01.444Z,101080.84
2023-01-10T11:28:31.319Z,101084.88
2023-01-10T11:30:59.077Z,101093.72
2023-01-10T11:33:35.235Z,101094.00
2023-01-10T11:36:03.485Z,101096.25
2023-01-10T11:38:31.279Z,101110.88
2023-01-10T11:41:00.886Z,101113.44
2023-01-10T11:43:38.247Z,101112.00
2023-01-10T11:46:21.732Z,101109.75
2023-01-10T11:49:08.141Z,101114.56
2023-01-10T11:51:43.882Z,101120.84
2023-01-10T11:54:15.591Z,101124.19
2023-01-10T11:56:43.406Z,101115.84
2023-01-10T11:59:14.335Z,101126.44
2023-01-10T12:02:04.980Z,101122.75
2023-01-10T12:04:39.549Z,101125.94
2023-01-10T12:07:10.776Z,101130.44
2023-01-10T12:09:44.312Z,101124.84
2023-01-10T12:12:21.452Z,101132.66
2023-01-10T12:14:48.672Z,101126.75
2023-01-10T12:17:35.640Z,101125.50
2023-01-10T12:20:04.456Z,101130.75
2023-01-10T12:22:43.140Z,101143.63
2023-01-10T12:25:17.189Z,101142.97
2023-01-10T12:27:44.893Z,101153.41
2023-01-10T12:30:17.869Z,101147.59
2023-01-10T12:32:53.263Z,101158.53
2023-01-10T12:35:24.943Z,101158.06
2023-01-10T12:37:55.961Z,101155.97
2023-01-10T12:40:45.135Z,101149.41
2023-01-10T12:43:42.552Z,101151.63
2023-01-10T12:46:33.861Z,101153.22
2023-01-10T12:49:17.083Z,101166.38
2023-01-10T12:51:45.940Z,101169.44
2023-01-10T12:54:20.827Z,101186.63
2023-01-10T12:56:48.699Z,101193.72
2023-01-10T12:59:36.481Z,101194.31
2023-01-10T13:02:10.453Z,101199.16
2023-01-10T13:04:38.669Z,101192.09
2023-01-10T13:07:05.982Z,101187.44
2023-01-10T13:09:33.440Z,101189.34
2023-01-10T13:12:08.715Z,101184.88
2023-01-10T13:14:42.090Z,101189.38
2023-01-10T13:17:32.790Z,101189.19
2023-01-10T13:20:24.677Z,101187.09
2023-01-10T13:22:52.476Z,101182.78
2023-01-10T13:25:31.196Z,101189.66
2023-01-10T13:27:58.861Z,101200.91
2023-01-10T13:30:34.976Z,101205.41
2023-01-10T13:33:07.658Z,101209.91
2023-01-10T13:35:43.682Z,101202.34
2023-01-10T13:38:27.075Z,101207.03
2023-01-10T13:41:05.955Z,101203.03
2023-01-10T13:43:36.643Z,101206.06
2023-01-10T13:46:15.354Z,101208.78
2023-01-10T13:48:51.618Z,101208.63
2023-01-10T13:51:19.213Z,101207.34
2023-01-10T13:53:57.224Z,101219.22
2023-01-10T13:56:36.987Z,101212.00
2023-01-10T13:59:28.653Z,101218.28
2023-01-10T14:02:17.302Z,101219.84
2023-01-10T14:04:54.714Z,101217.28
2023-01-10T14:07:32.911Z,101216.31
2023-01-10T14:10:27.271Z,101221.47
2023-01-10T14:13:09.334Z,101215.84
2023-01-10T14:15:41.350Z,101222.72
2023-01-10T14:18:21.456Z,101212.47
2023-01-10T14:20:58.536Z,101220.81
2023-01-10T14:23:32.173Z,101221.63
2023-01-10T14:25:59.035Z,101223.38
2023-01-10T14:28:28.881Z,101220.03
2023-01-10T14:31:01.649Z,101222.75
2023-01-10T14:33:29.007Z,101231.72
2023-01-10T14:36:01.538Z,101224.03
2023-01-10T14:38:31.337Z,101222.25
2023-01-10T14:41:04.999Z,101222.22
2023-01-10T14:44:01.145Z,101216.16
2023-01-10T14:46:48.892Z,101217.13
2023-01-10T14:49:26.245Z,101225.94
2023-01-10T14:52:00.642Z,101221.13
2023-01-10T14:54:29.408Z,101216.47
2023-01-10T14:56:57.392Z,101220.97
2023-01-10T14:59:26.733Z,101214.41
2023-01-10T15:02:02.267Z,101216.16
2023-01-10T15:04:33.542Z,101219.50
2023-01-10T15:07:03.417Z,101214.06
2023-01-10T15:09:32.144Z,101217.09
2023-01-10T15:12:02.165Z,101223.69
2023-01-10T15:14:30.077Z,101227.22
2023-01-10T15:17:02.130Z,101225.47
2023-01-10T15:19:33.589Z,101220.44
2023-01-10T15:22:00.342Z,101230.56
2023-01-10T15:24:37.685Z,101234.09
2023-01-10T15:27:13.064Z,101227.84
2023-01-10T15:29:44.862Z,101222.25
2023-01-10T15:32:35.624Z,101225.59
2023-01-10T15:35:03.122Z,101222.41
2023-01-10T15:37:35.212Z,101223.19
2023-01-10T15:40:04.983Z,101217.09
2023-01-10T15:42:31.745Z,101216.94
2023-01-10T15:45:22.008Z,101213.53
2023-01-10T15:47:48.417Z,101214.34
2023-01-10T15:50:29.516Z,101212.59
2023-01-10T15:53:00.821Z,101213.56
2023-01-10T15:55:51.234Z,101216.63
2023-01-10T15:58:35.055Z,101216.78
2023-01-10T16:01:05.322Z,101217.75
2023-01-10T16:03:35.456Z,101208.13
2023-01-10T16:06:08.939Z,101216.47
2023-01-10T16:08:38.087Z,101210.19
2023-01-10T16:11:08.033Z,101211.16
2023-01-10T16:13:37.602Z,101207.16
2023-01-10T16:16:15.374Z,101201.88
2023-01-10T16:18:42.011Z,101195.75
2023-01-10T16:21:11.279Z,101200.91
2023-01-10T16:23:38.233Z,101188.38
2023-01-10T16:26:06.504Z,101196.53
2023-01-10T16:28:36.232Z,101197.03
2023-01-10T16:31:06.376Z,101203.31
2023-01-10T16:33:33.536Z,101201.84
2023-01-10T16:36:00.279Z,101207.63
2023-01-10T16:38:28.592Z,101195.44
2023-01-10T16:41:00.923Z,101198.63
2023-01-10T16:43:29.312Z,101189.66
2023-01-10T16:46:01.461Z,101185.47
2023-01-10T16:48:31.595Z,101182.13
2023-01-10T16:51:18.450Z,101178.72
2023-01-10T16:53:45.976Z,101175.81
2023-01-10T16:56:14.976Z,101179.50
2023-01-10T16:58:41.956Z,101183.31
2023-01-10T17:01:13.910Z,101176.06
2023-01-10T17:03:40.720Z,101185.72
2023-01-10T17:06:07.454Z,101187.00
2023-01-10T17:08:33.899Z,101184.56
2023-01-10T17:11:05.743Z,101194.50
2023-01-10T17:13:36.278Z,101189.53
2023-01-10T17:16:02.952Z,101189.03
2023-01-10T17:18:29.501Z,101197.53
2023-01-10T17:20:57.549Z,101191.59
2023-01-10T17:23:25.450Z,101194.44
2023-01-10T17:26:02.235Z,101188.78
2023-01-10T17:28:29.529Z,101191.94
2023-01-10T17:30:57.228Z,101186.66
2023-01-10T17:33:24.866Z,101183.88
2023-01-10T17:35:54.757Z,101184.88
2023-01-10T17:38:21.560Z,101187.91
2023-01-10T17:40:49.117Z,101182.47
2023-01-10T17:43:16.993Z,101187.41
2023-01-10T17:45:45.730Z,101185.63
2023-01-10T17:48:14.823Z,101187.59
2023-01-10T17:50:42.335Z,101185.63
2023-01-10T17:53:08.887Z,101182.28
2023-01-10T17:55:35.683Z,101180.94
2023-01-10T17:58:05.142Z,101182.03
2023-01-10T18:00:32.194Z,101181.72
2023-01-10T18:02:58.757Z,101177.47
2023-01-10T18:05:25.396Z,101166.13
2023-01-10T18:07:51.896Z,101173.53
2023-01-10T18:10:18.442Z,101178.47
2023-01-10T18:12:45.387Z,101173.34
2023-01-10T18:15:11.816Z,101178.47
2023-01-10T18:17:38.870Z,101171.25
2023-01-10T18:20:06.001Z,101164.84
2023-01-10T18:22:51.326Z,101168.09
2023-01-10T18:25:17.901Z,101158.09
2023-01-10T18:27:50.031Z,101159.22
2023-01-10T18:30:21.648Z,101154.28
2023-01-10T18:32:54.415Z,101159.09
2023-01-10T18:35:22.208Z,101153.97
2023-01-10T18:37:48.797Z,101154.59
2023-01-10T18:40:15.282Z,101152.81
2023-01-10T18:42:41.921Z,101146.41
2023-01-10T18:45:08.793Z,101145.78
2023-01-10T18:47:35.225Z,101150.09
2023-01-10T18:50:01.833Z,101155.91
2023-01-10T18:52:28.401Z,101155.91
2023-01-10T18:54:54.918Z,101153.50
2023-01-10T18:57:21.461Z,101151.56
2023-01-10T18:59:47.875Z,101141.28
2023-01-10T19:02:15.186Z,101139.47
2023-01-10T19:04:41.801Z,101139.34
2023-01-10T19:07:08.584Z,101136.50
2023-01-10T19:09:35.287Z,101134.81
2023-01-10T19:12:01.776Z,101121.19
2023-01-10T19:14:28.278Z,101122.50
2023-01-10T19:16:54.753Z,101127.44
2023-01-10T19:19:21.232Z,101121.72
2023-01-10T19:21:47.682Z,101114.59
2023-01-10T19:24:27.516Z,101114.97
2023-01-10T19:26:54.355Z,101108.22
2023-01-10T19:29:20.915Z,101108.78
2023-01-10T19:31:48.355Z,101109.66
2023-01-10T19:34:14.946Z,101105.94
2023-01-10T19:36:44.620Z,101097.78
2023-01-10T19:39:12.133Z,101090.34
2023-01-10T19:41:39.108Z,101100.03
2023-01-10T19:44:08.875Z,101096.56
2023-01-10T19:46:37.205Z,101095.69
2023-01-10T19:49:08.145Z,101092.88
2023-01-10T19:51:36.670Z,101095.09
2023-01-10T19:54:04.302Z,101088.38
2023-01-10T19:56:31.110Z,101086.75
2023-01-10T19:58:57.717Z,101094.25
2023-01-10T20:01:27.005Z,101088.50
2023-01-10T20:03:56.452Z,101089.78
2023-01-10T20:06:26.487Z,101088.78
2023-01-10T20:08:56.508Z,101091.84
2023-01-10T20:11:25.325Z,101076.84
2023-01-10T20:13:52.268Z,101075.09
2023-01-10T20:16:21.252Z,101071.22
2023-01-10T20:18:48.968Z,101066.16
2023-01-10T20:21:17.879Z,101072.38
2023-01-10T20:23:44.809Z,101071.94
2023-01-10T20:26:14.591Z,101059.19
2023-01-10T20:28:42.874Z,101053.31
2023-01-10T20:31:18.144Z,101053.13
2023-01-10T20:33:44.805Z,101058.63
2023-01-10T20:36:14.181Z,101059.22
2023-01-10T20:38:41.026Z,101049.09
2023-01-10T20:41:16.003Z,101053.63
2023-01-10T20:43:43.297Z,101051.56
2023-01-10T20:46:12.929Z,101047.50
2023-01-10T20:48:40.172Z,101048.50
2023-01-10T20:51:08.355Z,101046.69
2023-01-10T20:53:34.785Z,101041.88
2023-01-10T20:56:10.755Z,101043.06
2023-01-10T20:58:37.885Z,101032.00
2023-01-10T21:01:04.393Z,101033.66
2023-01-10T21:03:30.877Z,101031.56
2023-01-10T21:05:58.502Z,101023.53
2023-01-10T21:08:25.664Z,101029.91
2023-01-10T21:10:52.733Z,101019.69
2023-01-10T21:13:19.561Z,101018.28
2023-01-10T21:15:47.242Z,101012.47
2023-01-10T21:18:15.922Z,101003.25
2023-01-10T21:20:47.200Z,101007.56
2023-01-10T21:23:14.500Z,101005.34
2023-01-10T21:25:41.157Z,101005.84
2023-01-10T21:28:10.393Z,100994.91
2023-01-10T21:30:38.247Z,101002.44
2023-01-10T21:33:05.521Z,101008.56
2023-01-10T21:35:33.080Z,100992.00
2023-01-10T21:38:00.476Z,100989.66
2023-01-10T21:40:28.027Z,100975.69
2023-01-10T21:42:55.012Z,100982.75
2023-01-10T21:45:22.358Z,100977.50
2023-01-10T21:47:49.133Z,100968.72
2023-01-10T21:50:16.198Z,100967.75
2023-01-10T21:52:43.602Z,100964.84
2023-01-10T21:55:13.024Z,100968.56
2023-01-10T21:57:39.734Z,100957.88
2023-01-10T22:00:06.867Z,100963.44
2023-01-10T22:02:34.919Z,100960.53
2023-01-10T22:05:01.652Z,100959.91
2023-01-10T22:07:28.913Z,100950.16
2023-01-10T22:09:55.590Z,100948.91
2023-01-10T22:12:24.110Z,100941.84
2023-01-10T22:14:50.648Z,100937.06
2023-01-10T22:17:17.277Z,100938.19
2023-01-10T22:19:43.834Z,100931.28
2023-01-10T22:22:10.916Z,100931.59
2023-01-10T22:24:37.368Z,100928.56
2023-01-10T22:27:04.941Z,100930.50
2023-01-10T22:29:31.332Z,100931.59
2023-01-10T22:31:57.908Z,100923.13
2023-01-10T22:34:24.453Z,100919.00
2023-01-10T22:36:51.074Z,100914.53
2023-01-10T22:39:17.568Z,100915.50
2023-01-10T22:41:43.980Z,100905.25
2023-01-10T22:44:18.200Z,100901.88
2023-01-10T22:46:45.271Z,100900.91
2023-01-10T22:49:11.883Z,100899.31
2023-01-10T22:51:38.308Z,100890.53
2023-01-10T22:54:05.022Z,100893.91
2023-01-10T22:56:31.628Z,100890.19
2023-01-10T22:58:58.029Z,100872.47
2023-01-10T23:01:24.992Z,100872.25
2023-01-10T23:03:51.834Z,100871.94
2023-01-10T23:06:18.458Z,100871.59
2023-01-10T23:08:45.609Z,100870.81
2023-01-10T23:11:15.849Z,100867.13
2023-01-10T23:13:42.386Z,100868.88
2023-01-10T23:16:12.832Z,100864.88
2023-01-10T23:18:39.368Z,100854.50
2023-01-10T23:21:06.317Z,100847.44
2023-01-10T23:23:32.797Z,100848.75
2023-01-10T23:26:05.129Z,100843.16
2023-01-10T23:28:51.405Z,100830.66
2023-01-10T23:31:20.413Z,100832.88
2023-01-10T23:33:47.574Z,100829.84
2023-01-10T23:36:14.497Z,100825.22
2023-01-10T23:38:41.013Z,100830.03
2023-01-10T23:41:07.640Z,100821.72
2023-01-10T23:43:34.102Z,100827.00
2023-01-10T23:46:02.169Z,100824.28
2023-01-10T23:48:29.503Z,100820.41
2023-01-10T23:50:56.107Z,100820.75
2023-01-10T23:53:23.014Z,100816.28
2023-01-10T23:55:49.449Z,100813.09
2023-01-10T23:58:16.845Z,100810.81
